TAF Text Data
IDs:
Format:
Raw Decoded Include METAR

Data at: 1447 UTC 15 Oct 2018

KAMA 151353Z 35014KT 10SM FEW047 SCT095 BKN110 M01/M04 A3039 RMK AO2 SLP308 T10061044

KAMA 151125Z 1512/1612 36017KT P6SM OVC040
  FM151900 36012KT P6SM OVC080
  FM160000 01009KT P6SM OVC100
  FM160600 VRB06KT P6SM SCT200